Terminal Aerodrome Forecast
Issued by NWS

Home | Current Version | Previous Version | Text Only | Print | Product List | Glossary On
Versions: 1 2 3 4 5 6 7 8 9 10 11 12 13 14 15 16 17
336
FTUS42 KTAE 191730
TAFABY
TAF
KABY 191730Z 1918/2018 16004KT P6SM BKN050
     FM200600 18006KT 2SM TSRA BR OVC015CB
     FM201100 18005KT 5SM BR VCSH OVC007
     FM201600 21010KT P6SM BKN015=

USA.gov is the U.S. government's official web portal to all federal, state and local government web resources and services.